createdAt,value
2022-12-15T00:00:17.119Z,27.60
2022-12-15T00:03:02.703Z,31.07
2022-12-15T00:05:50.047Z,29.17
2022-12-15T00:08:37.977Z,28.37
2022-12-15T00:11:23.789Z,26.57
2022-12-15T00:14:09.187Z,28.43
2022-12-15T00:16:54.615Z,27.97
2022-12-15T00:19:40.077Z,26.77
2022-12-15T00:22:25.515Z,29.50
2022-12-15T00:25:10.814Z,28.37
2022-12-15T00:27:56.140Z,28.37
2022-12-15T00:30:41.523Z,28.23
2022-12-15T00:33:30.452Z,28.20
2022-12-15T00:36:18.437Z,29.77
2022-12-15T00:38:48.487Z,30.17
2022-12-15T00:41:18.042Z,31.70
2022-12-15T00:43:45.540Z,29.27
2022-12-15T00:46:31.460Z,26.53
2022-12-15T00:48:58.589Z,30.80
2022-12-15T00:51:44.544Z,27.10
2022-12-15T00:54:29.889Z,24.10
2022-12-15T00:57:15.290Z,28.30
2022-12-15T01:00:00.410Z,26.23
2022-12-15T01:02:45.755Z,29.97
2022-12-15T01:05:31.292Z,25.63
2022-12-15T01:08:18.823Z,28.20
2022-12-15T01:11:04.163Z,27.40
2022-12-15T01:13:49.721Z,26.00
2022-12-15T01:16:35.294Z,31.00
2022-12-15T01:19:20.733Z,25.30
2022-12-15T01:21:49.531Z,29.67
2022-12-15T01:24:16.280Z,28.47
2022-12-15T01:26:42.990Z,27.70
2022-12-15T01:29:09.698Z,31.13
2022-12-15T01:31:36.590Z,27.20
2022-12-15T01:34:03.413Z,25.50
2022-12-15T01:36:30.185Z,22.67
2022-12-15T01:38:56.885Z,26.97
2022-12-15T01:41:24.168Z,24.37
2022-12-15T01:43:51.079Z,25.33
2022-12-15T01:46:21.898Z,25.13
2022-12-15T01:49:02.828Z,27.73
2022-12-15T01:51:39.274Z,26.70
2022-12-15T01:54:20.825Z,28.53
2022-12-15T01:56:56.855Z,27.63
2022-12-15T01:59:34.837Z,22.83
2022-12-15T02:02:03.319Z,26.10
2022-12-15T02:04:31.856Z,27.70
2022-12-15T02:06:58.541Z,27.43
2022-12-15T02:09:27.937Z,23.60
2022-12-15T02:12:51.201Z,23.53
2022-12-15T02:15:29.654Z,23.07
2022-12-15T02:18:25.425Z,29.97
2022-12-15T02:21:17.814Z,26.20
2022-12-15T02:24:10.584Z,26.70
2022-12-15T02:27:25.316Z,28.80
2022-12-15T02:30:19.535Z,27.43
2022-12-15T02:33:17.113Z,24.07
2022-12-15T02:36:02.112Z,25.50
2022-12-15T02:38:41.519Z,30.10
2022-12-15T02:41:32.552Z,29.20
2022-12-15T02:44:01.152Z,25.90
2022-12-15T02:46:59.190Z,29.07
2022-12-15T02:50:13.059Z,26.63
2022-12-15T02:53:00.588Z,29.93
2022-12-15T02:56:08.128Z,28.07
2022-12-15T02:59:00.411Z,24.00
2022-12-15T03:01:56.880Z,22.57
2022-12-15T03:04:25.734Z,28.03
2022-12-15T03:07:01.084Z,28.63
2022-12-15T03:09:28.368Z,27.87
2022-12-15T03:11:55.104Z,28.10
2022-12-15T03:14:22.555Z,30.70
2022-12-15T03:16:49.323Z,26.13
2022-12-15T03:19:16.090Z,31.17
2022-12-15T03:21:42.823Z,26.47
2022-12-15T03:24:09.611Z,30.07
2022-12-15T03:26:36.323Z,28.30
2022-12-15T03:29:03.722Z,27.53
2022-12-15T03:31:30.493Z,29.17
2022-12-15T03:33:57.298Z,29.00
2022-12-15T03:36:24.064Z,25.27
2022-12-15T03:38:50.856Z,31.50
2022-12-15T03:41:20.551Z,29.53
2022-12-15T03:43:49.718Z,28.77
2022-12-15T03:46:17.104Z,33.53
2022-12-15T03:48:44.081Z,29.07
2022-12-15T03:51:11.007Z,33.27
2022-12-15T03:53:38.805Z,33.73
2022-12-15T03:56:06.041Z,32.87
2022-12-15T03:58:32.785Z,26.53
2022-12-15T04:00:59.556Z,33.20
2022-12-15T04:03:26.346Z,34.70
2022-12-15T04:05:53.164Z,31.17
2022-12-15T04:08:26.471Z,32.03
2022-12-15T04:10:53.367Z,33.67
2022-12-15T04:13:20.174Z,34.77
2022-12-15T04:15:46.880Z,35.07
2022-12-15T04:18:13.695Z,42.47
2022-12-15T04:20:41.081Z,35.30
2022-12-15T04:23:08.282Z,30.20
2022-12-15T04:25:54.716Z,30.13
2022-12-15T04:28:40.728Z,34.90
2022-12-15T04:31:35.588Z,34.07
2022-12-15T04:34:24.872Z,32.53
2022-12-15T04:37:12.287Z,31.20
2022-12-15T04:40:06.234Z,32.67
2022-12-15T04:42:54.128Z,34.30
2022-12-15T04:45:43.488Z,30.87
2022-12-15T04:48:30.061Z,33.27
2022-12-15T04:51:15.580Z,32.17
2022-12-15T04:54:04.568Z,38.83
2022-12-15T04:56:51.604Z,29.87
2022-12-15T04:59:36.777Z,31.83
2022-12-15T05:02:22.234Z,32.40
2022-12-15T05:05:07.497Z,32.43
2022-12-15T05:07:52.943Z,31.23
2022-12-15T05:10:38.380Z,32.10
2022-12-15T05:13:26.148Z,35.10
2022-12-15T05:16:11.654Z,30.30
2022-12-15T05:18:56.977Z,38.17
2022-12-15T05:21:42.373Z,30.70
2022-12-15T05:24:27.766Z,34.47
2022-12-15T05:27:12.888Z,34.97
2022-12-15T05:29:58.365Z,36.07
2022-12-15T05:32:25.081Z,37.10
2022-12-15T05:34:51.764Z,32.20
2022-12-15T05:37:18.536Z,32.17
2022-12-15T05:39:45.255Z,31.67
2022-12-15T05:42:12.047Z,34.23
2022-12-15T05:44:38.828Z,35.70
2022-12-15T05:47:05.585Z,29.13
2022-12-15T05:49:33.294Z,30.70
2022-12-15T05:52:00.029Z,32.50
2022-12-15T05:54:27.074Z,30.17
2022-12-15T05:56:53.871Z,32.73
2022-12-15T05:59:20.640Z,33.70
2022-12-15T06:01:47.590Z,36.50
2022-12-15T06:04:14.673Z,32.50
2022-12-15T06:06:42.323Z,32.97
2022-12-15T06:09:10.049Z,37.23
2022-12-15T06:11:37.381Z,39.13
2022-12-15T06:14:04.408Z,32.87
2022-12-15T06:16:32.001Z,33.20
2022-12-15T06:19:01.856Z,33.27
2022-12-15T06:21:38.060Z,30.57
2022-12-15T06:24:06.141Z,30.13
2022-12-15T06:26:38.465Z,33.30
2022-12-15T06:29:10.044Z,32.57
2022-12-15T06:31:38.145Z,37.53
2022-12-15T06:34:08.436Z,33.30
2022-12-15T06:36:36.425Z,34.30
2022-12-15T06:39:06.384Z,30.00
2022-12-15T06:41:33.198Z,31.30
2022-12-15T06:44:00.752Z,33.20
2022-12-15T06:46:30.324Z,30.33
2022-12-15T06:48:58.532Z,31.43
2022-12-15T06:51:27.097Z,32.87
2022-12-15T06:53:55.128Z,36.33
2022-12-15T06:56:35.989Z,28.33
2022-12-15T06:59:05.247Z,35.53
2022-12-15T07:01:32.733Z,25.93
2022-12-15T07:04:01.363Z,35.00
2022-12-15T07:06:36.026Z,29.80
2022-12-15T07:09:04.419Z,28.07
2022-12-15T07:11:31.146Z,24.50
2022-12-15T07:13:57.865Z,27.87
2022-12-15T07:16:24.933Z,27.57
2022-12-15T07:18:52.203Z,32.97
2022-12-15T07:21:19.817Z,28.83
2022-12-15T07:23:55.952Z,32.80
2022-12-15T07:26:25.511Z,26.50
2022-12-15T07:28:53.356Z,30.00
2022-12-15T07:31:20.661Z,28.10
2022-12-15T07:33:48.140Z,31.47
2022-12-15T07:36:15.043Z,29.97
2022-12-15T07:38:41.756Z,27.43
2022-12-15T07:41:09.885Z,31.97
2022-12-15T07:43:37.632Z,29.20
2022-12-15T07:46:05.794Z,31.77
2022-12-15T07:48:33.951Z,31.43
2022-12-15T07:51:10.922Z,27.70
2022-12-15T07:53:38.376Z,29.30
2022-12-15T07:56:09.032Z,23.23
2022-12-15T07:58:37.752Z,32.20
2022-12-15T08:01:12.481Z,32.80
2022-12-15T08:03:40.003Z,26.87
2022-12-15T08:06:11.030Z,30.83
2022-12-15T08:08:38.373Z,30.93
2022-12-15T08:11:11.921Z,25.40
2022-12-15T08:16:27.886Z,29.23
2022-12-15T08:18:56.974Z,31.40
2022-12-15T08:21:24.124Z,26.63
2022-12-15T08:23:50.933Z,28.43
2022-12-15T08:26:21.392Z,25.37
2022-12-15T08:28:53.980Z,25.00
2022-12-15T08:31:23.523Z,29.63
2022-12-15T08:33:50.899Z,26.97
2022-12-15T08:36:20.343Z,24.97
2022-12-15T08:38:47.749Z,25.90
2022-12-15T08:41:22.879Z,30.40
2022-12-15T08:43:51.446Z,31.60
2022-12-15T08:46:22.380Z,27.43
2022-12-15T08:48:50.291Z,31.63
2022-12-15T08:51:17.575Z,28.27
2022-12-15T08:53:45.130Z,31.10
2022-12-15T08:56:19.296Z,35.50
2022-12-15T08:58:48.361Z,36.47
2022-12-15T09:01:23.308Z,34.53
2022-12-15T09:03:53.653Z,34.77
2022-12-15T09:06:30.497Z,30.63
2022-12-15T09:09:01.284Z,36.40
2022-12-15T09:11:30.410Z,30.50
2022-12-15T09:13:58.224Z,31.73
2022-12-15T09:16:25.838Z,33.00
2022-12-15T09:18:55.925Z,32.60
2022-12-15T09:21:26.122Z,30.87
2022-12-15T09:23:55.978Z,32.90
2022-12-15T09:26:24.048Z,34.03
2022-12-15T09:28:51.819Z,31.17
2022-12-15T09:31:25.860Z,33.77
2022-12-15T09:33:55.135Z,39.73
2022-12-15T09:36:23.567Z,29.60
2022-12-15T09:38:50.489Z,31.93
2022-12-15T09:41:32.483Z,30.20
2022-12-15T09:44:20.249Z,35.40
2022-12-15T09:47:44.784Z,34.67
2022-12-15T09:50:15.776Z,28.97
2022-12-15T09:53:00.479Z,32.47
2022-12-15T09:55:30.894Z,27.33
2022-12-15T09:58:22.265Z,31.47
2022-12-15T10:01:29.656Z,26.63
2022-12-15T10:04:18.230Z,26.10
2022-12-15T10:06:59.774Z,22.80
2022-12-15T10:09:29.712Z,31.83
2022-12-15T10:12:07.472Z,30.97
2022-12-15T10:15:12.326Z,30.00
2022-12-15T10:17:48.499Z,34.47
2022-12-15T10:20:22.087Z,26.67
2022-12-15T10:22:50.403Z,28.23
2022-12-15T10:25:32.852Z,28.17
2022-12-15T10:28:38.465Z,28.07
2022-12-15T10:31:52.697Z,29.63
2022-12-15T10:34:36.365Z,30.00
2022-12-15T10:37:03.683Z,26.47
2022-12-15T10:39:43.432Z,29.90
2022-12-15T10:42:47.239Z,29.17
2022-12-15T10:45:37.749Z,30.30
2022-12-15T10:48:06.733Z,24.93
2022-12-15T10:50:35.363Z,29.70
2022-12-15T10:53:09.512Z,29.70
2022-12-15T10:55:38.969Z,33.37
2022-12-15T10:58:23.427Z,28.93
2022-12-15T11:01:14.447Z,34.73
2022-12-15T11:03:41.820Z,31.67
2022-12-15T11:06:19.534Z,32.33
2022-12-15T11:08:47.608Z,29.63
2022-12-15T11:11:50.377Z,28.93
2022-12-15T11:14:26.780Z,32.40
2022-12-15T11:16:59.004Z,31.33
2022-12-15T11:19:56.730Z,31.10
2022-12-15T11:22:46.701Z,28.67
2022-12-15T11:25:31.384Z,33.63
2022-12-15T11:28:04.291Z,28.77
2022-12-15T11:30:45.519Z,33.30
2022-12-15T11:33:12.241Z,34.00
2022-12-15T11:36:10.031Z,31.43
2022-12-15T11:39:20.626Z,33.33
2022-12-15T11:42:18.188Z,31.17
2022-12-15T11:45:26.772Z,31.83
2022-12-15T11:48:06.122Z,31.20
2022-12-15T11:50:51.142Z,29.17
2022-12-15T11:53:59.324Z,29.70
2022-12-15T11:56:35.282Z,25.23
2022-12-15T11:59:25.247Z,32.87
2022-12-15T12:02:33.181Z,30.20
2022-12-15T12:05:18.582Z,33.27
2022-12-15T12:07:49.300Z,27.67
2022-12-15T12:10:47.526Z,29.83
2022-12-15T12:14:02.592Z,28.40
2022-12-15T12:17:24.786Z,31.33
2022-12-15T12:19:59.111Z,31.83
2022-12-15T12:22:42.193Z,28.67
2022-12-15T12:25:22.487Z,26.90
2022-12-15T12:28:03.775Z,26.37
2022-12-15T12:30:44.305Z,25.87
2022-12-15T12:33:44.565Z,27.87
2022-12-15T12:36:16.224Z,27.33
2022-12-15T12:38:52.877Z,28.67
2022-12-15T12:42:17.770Z,23.33
2022-12-15T12:44:48.931Z,25.50
2022-12-15T12:47:36.293Z,28.40
2022-12-15T12:50:16.697Z,26.10
2022-12-15T12:52:57.233Z,31.47
2022-12-15T12:55:41.901Z,24.07
2022-12-15T12:58:36.214Z,28.67
2022-12-15T13:01:25.523Z,23.53
2022-12-15T13:04:07.392Z,24.67
2022-12-15T13:06:34.118Z,23.70
2022-12-15T13:09:23.907Z,25.73
2022-12-15T13:11:53.244Z,25.13
2022-12-15T13:14:26.986Z,30.23
2022-12-15T13:17:38.961Z,22.17
2022-12-15T13:20:20.152Z,20.23
2022-12-15T13:22:47.229Z,20.70
2022-12-15T13:25:41.069Z,19.37
2022-12-15T13:28:37.099Z,19.97
2022-12-15T13:31:19.101Z,19.27
2022-12-15T13:33:52.337Z,19.87
2022-12-15T13:36:40.039Z,21.33
2022-12-15T13:39:12.462Z,18.53
2022-12-15T13:44:57.262Z,16.57
2022-12-15T13:47:29.301Z,19.23
2022-12-15T13:50:12.329Z,18.87
2022-12-15T13:55:46.145Z,18.13
2022-12-15T13:58:18.133Z,15.87
2022-12-15T14:00:54.022Z,18.00
2022-12-15T14:03:22.062Z,19.73
2022-12-15T14:05:52.709Z,18.13
2022-12-15T14:08:23.392Z,15.97
2022-12-15T14:10:56.973Z,17.70
2022-12-15T14:13:30.116Z,15.33
2022-12-15T14:16:15.184Z,16.40
2022-12-15T14:18:43.898Z,14.53
2022-12-15T14:21:26.876Z,15.43
2022-12-15T14:24:36.576Z,16.30
2022-12-15T14:26:42.101Z,17.63
2022-12-15T14:29:10.523Z,16.87
2022-12-15T14:31:38.068Z,12.30
2022-12-15T14:34:35.164Z,17.33
2022-12-15T14:37:07.767Z,16.60
2022-12-15T14:39:50.055Z,14.40
2022-12-15T14:42:27.948Z,15.47
2022-12-15T14:48:30.637Z,15.27
2022-12-15T14:50:48.003Z,14.93
2022-12-15T14:53:20.217Z,13.47
2022-12-15T14:55:47.106Z,18.80
2022-12-15T14:58:36.164Z,16.50
2022-12-15T15:01:21.260Z,17.40
2022-12-15T15:03:06.025Z,21.40
2022-12-15T15:04:04.834Z,16.23
2022-12-15T15:06:38.389Z,18.90
2022-12-15T15:09:41.661Z,17.43
2022-12-15T15:12:22.279Z,19.60
2022-12-15T15:14:58.089Z,20.27
2022-12-15T15:17:36.155Z,22.40
2022-12-15T15:20:18.303Z,18.67
2022-12-15T15:22:47.573Z,22.17
2022-12-15T15:25:26.045Z,24.40
2022-12-15T15:28:01.074Z,23.70
2022-12-15T15:30:28.094Z,23.30
2022-12-15T15:32:57.364Z,21.97
2022-12-15T15:35:30.767Z,21.83
2022-12-15T15:38:14.548Z,24.17
2022-12-15T15:40:41.300Z,25.37
2022-12-15T15:43:12.419Z,22.87
2022-12-15T15:45:41.945Z,23.03
2022-12-15T15:48:24.972Z,22.57
2022-12-15T15:50:52.105Z,19.47
2022-12-15T15:53:23.843Z,20.83
2022-12-15T15:55:53.545Z,20.40
2022-12-15T15:58:20.627Z,21.17
2022-12-15T16:00:47.405Z,21.67
2022-12-15T16:03:14.360Z,18.73
2022-12-15T16:05:42.737Z,22.03
2022-12-15T16:08:24.315Z,22.87
2022-12-15T16:10:51.113Z,25.67
2022-12-15T16:13:25.809Z,31.00
2022-12-15T16:15:53.947Z,27.00
2022-12-15T16:18:21.304Z,28.67
2022-12-15T16:20:51.940Z,26.63
2022-12-15T16:23:23.698Z,28.40
2022-12-15T16:26:00.107Z,25.03
2022-12-15T16:28:30.703Z,23.87
2022-12-15T16:30:58.701Z,24.47
2022-12-15T16:33:25.779Z,23.47
2022-12-15T16:35:53.515Z,23.13
2022-12-15T16:38:26.730Z,24.60
2022-12-15T16:40:55.681Z,24.93
2022-12-15T16:43:32.861Z,21.60
2022-12-15T16:46:03.306Z,25.30
2022-12-15T16:48:30.504Z,21.70
2022-12-15T16:50:59.063Z,22.53
2022-12-15T16:53:31.977Z,22.70
2022-12-15T16:56:02.856Z,21.10
2022-12-15T16:58:31.757Z,21.83
2022-12-15T17:00:58.684Z,23.77
2022-12-15T17:03:28.631Z,23.43
2022-12-15T17:06:04.019Z,26.83
2022-12-15T17:08:43.627Z,23.23
2022-12-15T17:11:19.082Z,25.10
2022-12-15T17:13:51.076Z,30.43
2022-12-15T17:16:20.495Z,24.10
2022-12-15T17:18:47.947Z,27.63
2022-12-15T17:21:32.102Z,23.80
2022-12-15T17:24:12.371Z,24.90
2022-12-15T17:26:39.565Z,23.53
2022-12-15T17:29:13.055Z,25.23
2022-12-15T17:31:39.935Z,26.30
2022-12-15T17:34:32.982Z,23.27
2022-12-15T17:37:04.185Z,23.47
2022-12-15T17:39:33.877Z,27.47
2022-12-15T17:42:02.054Z,22.50
2022-12-15T17:44:38.292Z,23.50
2022-12-15T17:47:08.706Z,21.17
2022-12-15T17:49:38.031Z,25.13
2022-12-15T17:52:34.155Z,28.90
2022-12-15T17:55:04.043Z,23.80
2022-12-15T17:57:31.878Z,23.30
2022-12-15T18:00:01.716Z,22.43
2022-12-15T18:02:28.610Z,22.30
2022-12-15T18:04:55.613Z,25.30
2022-12-15T18:07:23.988Z,23.30
2022-12-15T18:09:52.440Z,23.33
2022-12-15T18:12:28.973Z,21.03
2022-12-15T18:14:56.748Z,21.33
2022-12-15T18:17:23.978Z,18.97
2022-12-15T18:19:53.887Z,21.77
2022-12-15T18:22:25.117Z,19.97
2022-12-15T18:24:54.158Z,24.70
2022-12-15T18:27:26.555Z,24.30
2022-12-15T18:29:54.009Z,18.70
2022-12-15T18:32:25.801Z,19.07
2022-12-15T18:34:53.758Z,25.60
2022-12-15T18:37:23.336Z,23.23
2022-12-15T18:39:50.633Z,22.20
2022-12-15T18:42:21.722Z,21.27
2022-12-15T18:44:52.062Z,24.80
2022-12-15T18:47:22.888Z,29.97
2022-12-15T18:49:51.890Z,36.23
2022-12-15T18:52:22.601Z,33.33
2022-12-15T18:54:52.198Z,27.63
2022-12-15T18:57:36.242Z,27.23
2022-12-15T19:00:25.819Z,23.93
2022-12-15T19:02:56.163Z,20.03
2022-12-15T19:05:28.317Z,20.20
2022-12-15T19:08:10.728Z,23.10
2022-12-15T19:10:52.254Z,22.47
2022-12-15T19:13:23.364Z,20.23
2022-12-15T19:15:51.228Z,20.43
2022-12-15T19:18:39.865Z,20.30
2022-12-15T19:21:43.441Z,18.93
2022-12-15T19:24:17.580Z,20.57
2022-12-15T19:26:44.287Z,19.50
2022-12-15T19:29:23.776Z,20.27
2022-12-15T19:31:51.298Z,19.03
2022-12-15T19:34:18.021Z,28.40
2022-12-15T19:36:44.719Z,20.67
2022-12-15T19:39:23.124Z,16.93
2022-12-15T19:41:50.699Z,17.60
2022-12-15T19:44:17.573Z,16.40
2022-12-15T19:46:45.047Z,20.63
2022-12-15T19:49:11.760Z,19.93
2022-12-15T19:51:39.742Z,20.07
2022-12-15T19:54:06.644Z,23.37
2022-12-15T19:56:33.373Z,22.63
2022-12-15T19:59:00.131Z,19.17
2022-12-15T20:01:26.974Z,19.57
2022-12-15T20:03:54.086Z,18.97
2022-12-15T20:06:27.274Z,17.50
2022-12-15T20:08:56.107Z,16.67
2022-12-15T20:11:30.917Z,18.87
2022-12-15T20:13:57.970Z,16.33
2022-12-15T20:16:25.239Z,15.10
2022-12-15T20:18:55.038Z,18.90
2022-12-15T20:21:28.903Z,18.00
2022-12-15T20:24:01.954Z,16.30
2022-12-15T20:26:30.616Z,14.90
2022-12-15T20:28:57.947Z,13.80
2022-12-15T20:31:26.270Z,12.83
2022-12-15T20:33:53.340Z,20.13
2022-12-15T20:36:29.738Z,18.83
2022-12-15T20:38:57.081Z,18.13
2022-12-15T20:41:28.185Z,17.00
2022-12-15T20:43:56.454Z,20.77
2022-12-15T20:46:34.725Z,20.13
2022-12-15T20:49:02.191Z,17.83
2022-12-15T20:51:32.670Z,22.17
2022-12-15T20:54:02.743Z,18.93
2022-12-15T20:56:29.658Z,20.63
2022-12-15T20:58:58.647Z,20.33
2022-12-15T21:01:35.116Z,16.97
2022-12-15T21:04:25.816Z,20.10
2022-12-15T21:06:55.140Z,22.27
2022-12-15T21:09:23.276Z,18.70
2022-12-15T21:11:51.742Z,20.50
2022-12-15T21:14:22.463Z,16.73
2022-12-15T21:16:50.299Z,17.63
2022-12-15T21:19:21.996Z,20.33
2022-12-15T21:21:55.553Z,16.07
2022-12-15T21:24:27.155Z,16.43
2022-12-15T21:26:54.840Z,21.17
2022-12-15T21:29:25.448Z,20.27
2022-12-15T21:31:52.552Z,22.57
2022-12-15T21:34:19.258Z,23.07
2022-12-15T21:36:52.332Z,19.87
2022-12-15T21:39:29.595Z,17.93
2022-12-15T21:42:01.195Z,22.47
2022-12-15T21:44:27.947Z,22.13
2022-12-15T21:46:54.849Z,18.73
2022-12-15T21:49:21.995Z,21.17
2022-12-15T21:51:55.199Z,19.60
2022-12-15T21:54:31.359Z,18.77
2022-12-15T21:57:02.511Z,21.10
2022-12-15T21:59:32.136Z,19.97
2022-12-15T22:02:31.392Z,23.93
2022-12-15T22:04:58.251Z,18.67
2022-12-15T22:07:24.965Z,18.67
2022-12-15T22:09:51.885Z,22.33
2022-12-15T22:12:23.603Z,18.43
2022-12-15T22:14:50.736Z,20.63
2022-12-15T22:17:22.014Z,21.30
2022-12-15T22:19:48.819Z,20.50
2022-12-15T22:22:16.478Z,24.17
2022-12-15T22:24:43.842Z,19.50
2022-12-15T22:27:20.488Z,18.20
2022-12-15T22:29:49.064Z,25.23
2022-12-15T22:32:17.391Z,19.13
2022-12-15T22:34:44.081Z,22.90
2022-12-15T22:37:10.778Z,22.27
2022-12-15T22:39:37.472Z,21.60
2022-12-15T22:42:05.220Z,21.47
2022-12-15T22:44:37.183Z,23.03
2022-12-15T22:47:06.415Z,27.30
2022-12-15T22:49:38.869Z,27.13
2022-12-15T22:52:20.598Z,27.30
2022-12-15T22:54:47.813Z,18.87
2022-12-15T22:57:24.847Z,24.83
2022-12-15T23:00:04.033Z,24.40
2022-12-15T23:02:38.882Z,25.23
2022-12-15T23:05:09.121Z,24.57
2022-12-15T23:07:36.007Z,26.37
2022-12-15T23:10:27.187Z,24.40
2022-12-15T23:12:54.527Z,21.90
2022-12-15T23:15:46.210Z,24.90
2022-12-15T23:18:13.965Z,23.50
2022-12-15T23:20:41.187Z,24.40
2022-12-15T23:23:09.814Z,25.87
2022-12-15T23:25:36.523Z,29.37
2022-12-15T23:28:03.575Z,28.27
2022-12-15T23:30:30.324Z,23.03
2022-12-15T23:32:57.105Z,23.53
2022-12-15T23:35:23.947Z,27.43
2022-12-15T23:37:50.882Z,24.60
2022-12-15T23:40:21.991Z,26.90
2022-12-15T23:42:50.184Z,23.27
2022-12-15T23:45:17.964Z,22.87
2022-12-15T23:47:44.841Z,24.80
2022-12-15T23:50:11.842Z,25.97
2022-12-15T23:52:38.771Z,23.50
2022-12-15T23:55:09.855Z,24.00
2022-12-15T23:57:38.080Z,27.37
